sensor_id;sensor_type;location;lat;lon;timestamp;P1;durP1;ratioP1;P2;durP2;ratioP2
57667;SDS011;43499;52.366;12.912;2023-04-08T00:01:00;11.50;;;7.20;;
57667;SDS011;43499;52.366;12.912;2023-04-08T00:02:01;12.50;;;7.50;;
57667;SDS011;43499;52.366;12.912;2023-04-08T00:03:03;10.68;;;7.00;;
57667;SDS011;43499;52.366;12.912;2023-04-08T00:04:04;9.77;;;6.95;;
57667;SDS011;43499;52.366;12.912;2023-04-08T00:05:06;10.63;;;7.30;;
57667;SDS011;43499;52.366;12.912;2023-04-08T00:06:07;13.57;;;8.30;;
57667;SDS011;43499;52.366;12.912;2023-04-08T00:07:08;11.27;;;7.03;;
57667;SDS011;43499;52.366;12.912;2023-04-08T00:08:09;10.60;;;7.43;;
57667;SDS011;43499;52.366;12.912;2023-04-08T00:09:10;13.48;;;7.60;;
57667;SDS011;43499;52.366;12.912;2023-04-08T00:10:11;12.63;;;7.15;;
57667;SDS011;43499;52.366;12.912;2023-04-08T00:11:12;12.02;;;7.20;;
57667;SDS011;43499;52.366;12.912;2023-04-08T00:12:13;9.80;;;6.55;;
57667;SDS011;43499;52.366;12.912;2023-04-08T00:13:15;20.92;;;7.90;;
57667;SDS011;43499;52.366;12.912;2023-04-08T00:14:16;10.82;;;7.30;;
57667;SDS011;43499;52.366;12.912;2023-04-08T00:15:17;9.98;;;6.82;;
57667;SDS011;43499;52.366;12.912;2023-04-08T00:16:18;12.07;;;6.68;;
57667;SDS011;43499;52.366;12.912;2023-04-08T00:17:19;11.55;;;7.65;;
57667;SDS011;43499;52.366;12.912;2023-04-08T00:18:20;9.75;;;6.50;;
57667;SDS011;43499;52.366;12.912;2023-04-08T00:19:21;10.18;;;6.18;;
57667;SDS011;43499;52.366;12.912;2023-04-08T00:20:22;12.95;;;6.90;;
57667;SDS011;43499;52.366;12.912;2023-04-08T00:21:24;13.57;;;6.78;;
57667;SDS011;43499;52.366;12.912;2023-04-08T00:22:26;9.88;;;6.78;;
57667;SDS011;43499;52.366;12.912;2023-04-08T00:23:28;10.57;;;6.57;;
57667;SDS011;43499;52.366;12.912;2023-04-08T00:24:30;12.90;;;8.07;;
57667;SDS011;43499;52.366;12.912;2023-04-08T00:25:31;12.90;;;6.68;;
57667;SDS011;43499;52.366;12.912;2023-04-08T00:26:32;9.75;;;6.70;;
57667;SDS011;43499;52.366;12.912;2023-04-08T00:27:34;10.48;;;6.70;;
57667;SDS011;43499;52.366;12.912;2023-04-08T00:28:35;13.75;;;7.82;;
57667;SDS011;43499;52.366;12.912;2023-04-08T00:29:37;11.65;;;6.65;;
57667;SDS011;43499;52.366;12.912;2023-04-08T00:30:39;12.05;;;7.15;;
57667;SDS011;43499;52.366;12.912;2023-04-08T00:31:40;10.30;;;6.82;;
57667;SDS011;43499;52.366;12.912;2023-04-08T00:32:41;10.23;;;6.45;;
57667;SDS011;43499;52.366;12.912;2023-04-08T00:33:42;10.15;;;6.90;;
57667;SDS011;43499;52.366;12.912;2023-04-08T00:34:44;11.30;;;7.72;;
57667;SDS011;43499;52.366;12.912;2023-04-08T00:35:45;11.30;;;7.43;;
57667;SDS011;43499;52.366;12.912;2023-04-08T00:36:46;13.23;;;7.78;;
57667;SDS011;43499;52.366;12.912;2023-04-08T00:37:47;13.95;;;8.95;;
57667;SDS011;43499;52.366;12.912;2023-04-08T00:38:49;13.43;;;8.48;;
57667;SDS011;43499;52.366;12.912;2023-04-08T00:39:51;13.02;;;8.13;;
57667;SDS011;43499;52.366;12.912;2023-04-08T00:40:53;14.20;;;8.02;;
57667;SDS011;43499;52.366;12.912;2023-04-08T00:41:55;11.70;;;7.75;;
57667;SDS011;43499;52.366;12.912;2023-04-08T00:42:57;14.43;;;8.35;;
57667;SDS011;43499;52.366;12.912;2023-04-08T00:43:58;14.18;;;8.07;;
57667;SDS011;43499;52.366;12.912;2023-04-08T00:44:59;12.90;;;8.95;;
57667;SDS011;43499;52.366;12.912;2023-04-08T00:46:00;14.50;;;8.10;;
57667;SDS011;43499;52.366;12.912;2023-04-08T00:47:02;15.60;;;8.20;;
57667;SDS011;43499;52.366;12.912;2023-04-08T00:48:03;14.48;;;8.75;;
57667;SDS011;43499;52.366;12.912;2023-04-08T00:49:05;13.90;;;8.82;;
57667;SDS011;43499;52.366;12.912;2023-04-08T00:50:07;14.25;;;8.68;;
57667;SDS011;43499;52.366;12.912;2023-04-08T00:51:10;14.75;;;8.88;;
57667;SDS011;43499;52.366;12.912;2023-04-08T00:52:12;14.15;;;8.65;;
57667;SDS011;43499;52.366;12.912;2023-04-08T00:53:14;14.23;;;8.70;;
57667;SDS011;43499;52.366;12.912;2023-04-08T00:54:18;14.65;;;8.73;;
57667;SDS011;43499;52.366;12.912;2023-04-08T00:55:19;13.85;;;8.95;;
57667;SDS011;43499;52.366;12.912;2023-04-08T00:56:20;14.85;;;8.68;;
57667;SDS011;43499;52.366;12.912;2023-04-08T00:57:22;16.67;;;9.20;;
57667;SDS011;43499;52.366;12.912;2023-04-08T00:58:24;12.80;;;8.57;;
57667;SDS011;43499;52.366;12.912;2023-04-08T00:59:25;14.77;;;9.10;;
57667;SDS011;43499;52.366;12.912;2023-04-08T01:00:29;18.23;;;9.73;;
57667;SDS011;43499;52.366;12.912;2023-04-08T01:01:33;15.23;;;9.93;;
57667;SDS011;43499;52.366;12.912;2023-04-08T01:03:04;17.30;;;10.13;;
57667;SDS011;43499;52.366;12.912;2023-04-08T01:04:52;18.77;;;10.05;;
57667;SDS011;43499;52.366;12.912;2023-04-08T01:06:15;19.58;;;10.20;;
57667;SDS011;43499;52.366;12.912;2023-04-08T01:07:27;21.90;;;11.00;;
57667;SDS011;43499;52.366;12.912;2023-04-08T01:08:32;22.77;;;10.63;;
57667;SDS011;43499;52.366;12.912;2023-04-08T01:09:37;18.52;;;10.75;;
57667;SDS011;43499;52.366;12.912;2023-04-08T01:10:39;21.17;;;12.10;;
57667;SDS011;43499;52.366;12.912;2023-04-08T01:11:43;21.48;;;11.48;;
57667;SDS011;43499;52.366;12.912;2023-04-08T01:13:03;23.02;;;12.70;;
57667;SDS011;43499;52.366;12.912;2023-04-08T01:14:08;24.30;;;12.68;;
57667;SDS011;43499;52.366;12.912;2023-04-08T01:15:12;22.17;;;12.77;;
57667;SDS011;43499;52.366;12.912;2023-04-08T01:16:14;23.83;;;12.73;;
57667;SDS011;43499;52.366;12.912;2023-04-08T01:17:17;22.83;;;12.85;;
57667;SDS011;43499;52.366;12.912;2023-04-08T01:18:20;23.23;;;14.20;;
57667;SDS011;43499;52.366;12.912;2023-04-08T01:19:30;29.17;;;14.50;;
57667;SDS011;43499;52.366;12.912;2023-04-08T01:20:34;26.27;;;13.48;;
57667;SDS011;43499;52.366;12.912;2023-04-08T01:21:36;30.95;;;15.32;;
57667;SDS011;43499;52.366;12.912;2023-04-08T01:22:59;29.23;;;13.93;;
57667;SDS011;43499;52.366;12.912;2023-04-08T01:24:12;28.38;;;13.05;;
57667;SDS011;43499;52.366;12.912;2023-04-08T01:25:23;30.73;;;13.98;;
57667;SDS011;43499;52.366;12.912;2023-04-08T01:26:29;27.27;;;14.20;;
57667;SDS011;43499;52.366;12.912;2023-04-08T01:27:30;26.90;;;14.23;;
57667;SDS011;43499;52.366;12.912;2023-04-08T01:28:35;26.15;;;14.23;;
57667;SDS011;43499;52.366;12.912;2023-04-08T01:29:37;29.27;;;15.07;;
57667;SDS011;43499;52.366;12.912;2023-04-08T01:30:40;28.95;;;15.18;;
57667;SDS011;43499;52.366;12.912;2023-04-08T01:31:42;26.08;;;15.07;;
57667;SDS011;43499;52.366;12.912;2023-04-08T01:32:43;28.40;;;14.55;;
57667;SDS011;43499;52.366;12.912;2023-04-08T01:33:46;31.35;;;16.13;;
57667;SDS011;43499;52.366;12.912;2023-04-08T01:34:48;31.48;;;14.93;;
57667;SDS011;43499;52.366;12.912;2023-04-08T01:35:50;31.08;;;14.00;;
57667;SDS011;43499;52.366;12.912;2023-04-08T01:36:54;30.80;;;15.38;;
57667;SDS011;43499;52.366;12.912;2023-04-08T01:37:57;31.40;;;15.98;;
57667;SDS011;43499;52.366;12.912;2023-04-08T01:38:59;42.15;;;15.60;;
57667;SDS011;43499;52.366;12.912;2023-04-08T01:40:02;31.77;;;15.38;;
57667;SDS011;43499;52.366;12.912;2023-04-08T01:41:06;31.50;;;15.73;;
57667;SDS011;43499;52.366;12.912;2023-04-08T01:42:10;33.05;;;15.73;;
57667;SDS011;43499;52.366;12.912;2023-04-08T01:43:13;35.65;;;16.40;;
57667;SDS011;43499;52.366;12.912;2023-04-08T01:44:15;36.13;;;16.58;;
57667;SDS011;43499;52.366;12.912;2023-04-08T01:45:18;37.25;;;16.30;;
57667;SDS011;43499;52.366;12.912;2023-04-08T01:46:20;35.65;;;16.88;;
57667;SDS011;43499;52.366;12.912;2023-04-08T01:47:22;39.63;;;18.65;;
57667;SDS011;43499;52.366;12.912;2023-04-08T01:48:25;38.85;;;18.95;;
57667;SDS011;43499;52.366;12.912;2023-04-08T01:49:28;37.42;;;17.60;;
57667;SDS011;43499;52.366;12.912;2023-04-08T01:50:30;39.00;;;17.35;;
57667;SDS011;43499;52.366;12.912;2023-04-08T01:51:31;41.83;;;16.92;;
57667;SDS011;43499;52.366;12.912;2023-04-08T01:52:34;39.55;;;17.58;;
57667;SDS011;43499;52.366;12.912;2023-04-08T01:53:35;35.25;;;17.20;;
57667;SDS011;43499;52.366;12.912;2023-04-08T01:54:37;31.67;;;16.05;;
57667;SDS011;43499;52.366;12.912;2023-04-08T01:55:39;36.45;;;17.85;;
57667;SDS011;43499;52.366;12.912;2023-04-08T01:56:41;39.00;;;16.58;;
57667;SDS011;43499;52.366;12.912;2023-04-08T01:57:47;31.08;;;16.48;;
57667;SDS011;43499;52.366;12.912;2023-04-08T01:58:50;33.60;;;17.08;;
57667;SDS011;43499;52.366;12.912;2023-04-08T01:59:55;35.33;;;16.92;;
57667;SDS011;43499;52.366;12.912;2023-04-08T02:01:03;29.25;;;15.95;;
57667;SDS011;43499;52.366;12.912;2023-04-08T02:02:10;36.95;;;18.27;;
57667;SDS011;43499;52.366;12.912;2023-04-08T02:03:12;35.22;;;16.50;;
57667;SDS011;43499;52.366;12.912;2023-04-08T02:04:19;38.35;;;16.35;;
57667;SDS011;43499;52.366;12.912;2023-04-08T02:05:20;34.90;;;16.55;;
57667;SDS011;43499;52.366;12.912;2023-04-08T02:06:21;42.17;;;17.40;;
57667;SDS011;43499;52.366;12.912;2023-04-08T02:07:22;32.67;;;17.05;;
57667;SDS011;43499;52.366;12.912;2023-04-08T02:08:24;36.28;;;16.98;;
57667;SDS011;43499;52.366;12.912;2023-04-08T02:09:25;38.47;;;18.05;;
57667;SDS011;43499;52.366;12.912;2023-04-08T02:10:26;36.75;;;17.02;;
57667;SDS011;43499;52.366;12.912;2023-04-08T02:11:27;44.15;;;17.60;;
57667;SDS011;43499;52.366;12.912;2023-04-08T02:12:29;44.63;;;17.58;;
57667;SDS011;43499;52.366;12.912;2023-04-08T02:13:30;42.45;;;17.75;;
57667;SDS011;43499;52.366;12.912;2023-04-08T02:14:32;34.03;;;16.20;;
57667;SDS011;43499;52.366;12.912;2023-04-08T02:15:43;43.78;;;18.42;;
57667;SDS011;43499;52.366;12.912;2023-04-08T02:17:54;44.25;;;18.98;;
57667;SDS011;43499;52.366;12.912;2023-04-08T02:19:09;41.45;;;18.02;;
57667;SDS011;43499;52.366;12.912;2023-04-08T02:20:18;41.58;;;18.08;;
57667;SDS011;43499;52.366;12.912;2023-04-08T02:21:22;39.70;;;16.38;;
57667;SDS011;43499;52.366;12.912;2023-04-08T02:23:47;48.33;;;18.05;;
57667;SDS011;43499;52.366;12.912;2023-04-08T02:24:50;43.20;;;18.40;;
57667;SDS011;43499;52.366;12.912;2023-04-08T02:25:52;45.90;;;20.27;;
57667;SDS011;43499;52.366;12.912;2023-04-08T02:26:57;45.47;;;19.58;;
57667;SDS011;43499;52.366;12.912;2023-04-08T02:28:02;39.97;;;18.30;;
57667;SDS011;43499;52.366;12.912;2023-04-08T02:29:05;44.50;;;20.30;;
57667;SDS011;43499;52.366;12.912;2023-04-08T02:30:11;44.88;;;19.50;;
57667;SDS011;43499;52.366;12.912;2023-04-08T02:31:13;44.70;;;19.30;;
57667;SDS011;43499;52.366;12.912;2023-04-08T02:32:19;43.38;;;18.98;;
57667;SDS011;43499;52.366;12.912;2023-04-08T02:33:21;42.35;;;17.88;;
57667;SDS011;43499;52.366;12.912;2023-04-08T02:34:25;39.60;;;18.35;;
57667;SDS011;43499;52.366;12.912;2023-04-08T02:35:27;44.17;;;19.00;;
57667;SDS011;43499;52.366;12.912;2023-04-08T02:36:29;49.75;;;19.33;;
57667;SDS011;43499;52.366;12.912;2023-04-08T02:37:36;45.50;;;19.83;;
57667;SDS011;43499;52.366;12.912;2023-04-08T02:38:37;45.22;;;19.48;;
57667;SDS011;43499;52.366;12.912;2023-04-08T02:39:38;47.58;;;18.52;;
57667;SDS011;43499;52.366;12.912;2023-04-08T02:40:39;44.00;;;18.42;;
57667;SDS011;43499;52.366;12.912;2023-04-08T02:41:40;43.20;;;18.35;;
57667;SDS011;43499;52.366;12.912;2023-04-08T02:42:41;42.75;;;19.88;;
57667;SDS011;43499;52.366;12.912;2023-04-08T02:43:42;42.88;;;17.65;;
57667;SDS011;43499;52.366;12.912;2023-04-08T02:44:43;48.00;;;20.50;;
57667;SDS011;43499;52.366;12.912;2023-04-08T02:45:45;39.45;;;17.70;;
57667;SDS011;43499;52.366;12.912;2023-04-08T02:46:46;48.63;;;20.23;;
57667;SDS011;43499;52.366;12.912;2023-04-08T02:47:47;43.75;;;17.83;;
57667;SDS011;43499;52.366;12.912;2023-04-08T02:48:48;43.17;;;19.33;;
57667;SDS011;43499;52.366;12.912;2023-04-08T02:49:49;42.58;;;17.70;;
57667;SDS011;43499;52.366;12.912;2023-04-08T02:50:52;45.15;;;18.40;;
57667;SDS011;43499;52.366;12.912;2023-04-08T02:51:54;46.60;;;19.08;;
57667;SDS011;43499;52.366;12.912;2023-04-08T02:52:55;49.90;;;19.52;;
57667;SDS011;43499;52.366;12.912;2023-04-08T02:53:56;47.55;;;18.05;;
57667;SDS011;43499;52.366;12.912;2023-04-08T02:54:57;36.30;;;16.90;;
57667;SDS011;43499;52.366;12.912;2023-04-08T02:55:58;42.83;;;18.50;;
57667;SDS011;43499;52.366;12.912;2023-04-08T02:56:59;46.53;;;19.13;;
57667;SDS011;43499;52.366;12.912;2023-04-08T02:58:00;45.40;;;18.92;;
57667;SDS011;43499;52.366;12.912;2023-04-08T02:59:01;56.13;;;20.20;;
57667;SDS011;43499;52.366;12.912;2023-04-08T03:00:03;45.00;;;19.08;;
57667;SDS011;43499;52.366;12.912;2023-04-08T03:01:06;59.67;;;20.23;;
57667;SDS011;43499;52.366;12.912;2023-04-08T03:02:08;44.53;;;19.90;;
57667;SDS011;43499;52.366;12.912;2023-04-08T03:03:09;44.90;;;19.45;;
57667;SDS011;43499;52.366;12.912;2023-04-08T03:04:10;52.95;;;20.15;;
57667;SDS011;43499;52.366;12.912;2023-04-08T03:05:11;52.47;;;19.98;;
57667;SDS011;43499;52.366;12.912;2023-04-08T03:06:12;44.60;;;18.58;;
57667;SDS011;43499;52.366;12.912;2023-04-08T03:07:13;54.50;;;19.35;;
57667;SDS011;43499;52.366;12.912;2023-04-08T03:08:14;43.58;;;18.00;;
57667;SDS011;43499;52.366;12.912;2023-04-08T03:09:15;46.05;;;19.10;;
57667;SDS011;43499;52.366;12.912;2023-04-08T03:10:16;44.78;;;19.27;;
57667;SDS011;43499;52.366;12.912;2023-04-08T03:11:17;46.97;;;19.70;;
57667;SDS011;43499;52.366;12.912;2023-04-08T03:12:18;48.55;;;17.27;;
57667;SDS011;43499;52.366;12.912;2023-04-08T03:13:20;51.72;;;19.13;;
57667;SDS011;43499;52.366;12.912;2023-04-08T03:14:21;53.42;;;18.92;;
57667;SDS011;43499;52.366;12.912;2023-04-08T03:15:22;41.30;;;18.90;;
57667;SDS011;43499;52.366;12.912;2023-04-08T03:16:23;43.70;;;19.45;;
57667;SDS011;43499;52.366;12.912;2023-04-08T03:17:24;47.78;;;19.23;;
57667;SDS011;43499;52.366;12.912;2023-04-08T03:18:25;45.13;;;19.48;;
57667;SDS011;43499;52.366;12.912;2023-04-08T03:19:26;46.42;;;17.40;;
57667;SDS011;43499;52.366;12.912;2023-04-08T03:20:27;60.13;;;20.40;;
57667;SDS011;43499;52.366;12.912;2023-04-08T03:21:28;47.97;;;19.17;;
57667;SDS011;43499;52.366;12.912;2023-04-08T03:22:32;50.30;;;18.15;;
57667;SDS011;43499;52.366;12.912;2023-04-08T03:23:33;49.30;;;18.92;;
57667;SDS011;43499;52.366;12.912;2023-04-08T03:24:34;42.45;;;19.10;;
57667;SDS011;43499;52.366;12.912;2023-04-08T03:25:36;55.45;;;18.35;;
57667;SDS011;43499;52.366;12.912;2023-04-08T03:26:37;50.33;;;20.05;;
57667;SDS011;43499;52.366;12.912;2023-04-08T03:27:38;49.22;;;19.33;;
57667;SDS011;43499;52.366;12.912;2023-04-08T03:28:39;50.53;;;19.65;;
57667;SDS011;43499;52.366;12.912;2023-04-08T03:29:40;45.03;;;17.88;;
57667;SDS011;43499;52.366;12.912;2023-04-08T03:30:41;37.38;;;17.67;;
57667;SDS011;43499;52.366;12.912;2023-04-08T03:31:42;42.03;;;19.25;;
57667;SDS011;43499;52.366;12.912;2023-04-08T03:32:44;51.08;;;19.27;;
57667;SDS011;43499;52.366;12.912;2023-04-08T03:33:45;48.10;;;18.88;;
57667;SDS011;43499;52.366;12.912;2023-04-08T03:34:47;47.30;;;20.10;;
57667;SDS011;43499;52.366;12.912;2023-04-08T03:35:50;45.83;;;19.83;;
57667;SDS011;43499;52.366;12.912;2023-04-08T03:36:51;48.55;;;20.15;;
57667;SDS011;43499;52.366;12.912;2023-04-08T03:37:52;42.85;;;18.80;;
57667;SDS011;43499;52.366;12.912;2023-04-08T03:38:54;44.90;;;19.38;;
57667;SDS011;43499;52.366;12.912;2023-04-08T03:39:55;44.72;;;19.35;;
57667;SDS011;43499;52.366;12.912;2023-04-08T03:40:57;46.80;;;18.92;;
57667;SDS011;43499;52.366;12.912;2023-04-08T03:41:59;55.45;;;21.15;;
57667;SDS011;43499;52.366;12.912;2023-04-08T03:43:00;48.92;;;19.83;;
57667;SDS011;43499;52.366;12.912;2023-04-08T03:44:01;57.60;;;20.33;;
57667;SDS011;43499;52.366;12.912;2023-04-08T03:45:03;48.13;;;19.48;;
57667;SDS011;43499;52.366;12.912;2023-04-08T03:46:04;46.92;;;18.75;;
57667;SDS011;43499;52.366;12.912;2023-04-08T03:47:05;51.83;;;20.45;;
57667;SDS011;43499;52.366;12.912;2023-04-08T03:48:06;51.67;;;19.33;;
57667;SDS011;43499;52.366;12.912;2023-04-08T03:49:07;57.38;;;21.30;;
57667;SDS011;43499;52.366;12.912;2023-04-08T03:50:08;50.33;;;19.30;;
57667;SDS011;43499;52.366;12.912;2023-04-08T03:51:10;52.28;;;19.58;;
57667;SDS011;43499;52.366;12.912;2023-04-08T03:52:11;51.95;;;20.65;;
57667;SDS011;43499;52.366;12.912;2023-04-08T03:53:12;53.83;;;20.08;;
57667;SDS011;43499;52.366;12.912;2023-04-08T03:54:13;51.47;;;19.17;;
57667;SDS011;43499;52.366;12.912;2023-04-08T03:55:14;53.05;;;20.67;;
57667;SDS011;43499;52.366;12.912;2023-04-08T03:56:15;51.88;;;20.60;;
57667;SDS011;43499;52.366;12.912;2023-04-08T03:57:16;51.33;;;19.50;;
57667;SDS011;43499;52.366;12.912;2023-04-08T03:58:17;44.47;;;19.00;;
57667;SDS011;43499;52.366;12.912;2023-04-08T03:59:18;54.30;;;20.75;;
57667;SDS011;43499;52.366;12.912;2023-04-08T04:00:19;54.55;;;18.90;;
57667;SDS011;43499;52.366;12.912;2023-04-08T04:01:20;57.95;;;20.38;;
57667;SDS011;43499;52.366;12.912;2023-04-08T04:02:21;62.10;;;21.42;;
57667;SDS011;43499;52.366;12.912;2023-04-08T04:03:22;56.38;;;19.70;;
57667;SDS011;43499;52.366;12.912;2023-04-08T04:04:23;56.22;;;20.15;;
57667;SDS011;43499;52.366;12.912;2023-04-08T04:05:24;48.88;;;20.00;;
57667;SDS011;43499;52.366;12.912;2023-04-08T04:06:25;49.53;;;19.25;;
57667;SDS011;43499;52.366;12.912;2023-04-08T04:07:27;53.22;;;20.40;;
57667;SDS011;43499;52.366;12.912;2023-04-08T04:08:28;46.90;;;19.52;;
57667;SDS011;43499;52.366;12.912;2023-04-08T04:09:29;48.63;;;20.17;;
57667;SDS011;43499;52.366;12.912;2023-04-08T04:10:30;49.10;;;18.70;;
57667;SDS011;43499;52.366;12.912;2023-04-08T04:11:32;51.97;;;21.95;;
57667;SDS011;43499;52.366;12.912;2023-04-08T04:12:34;61.38;;;19.88;;
57667;SDS011;43499;52.366;12.912;2023-04-08T04:13:35;51.92;;;19.33;;
57667;SDS011;43499;52.366;12.912;2023-04-08T04:14:36;55.38;;;20.88;;
57667;SDS011;43499;52.366;12.912;2023-04-08T04:15:37;60.63;;;20.98;;
57667;SDS011;43499;52.366;12.912;2023-04-08T04:16:39;51.97;;;21.08;;
57667;SDS011;43499;52.366;12.912;2023-04-08T04:17:40;62.00;;;20.13;;
57667;SDS011;43499;52.366;12.912;2023-04-08T04:18:41;52.13;;;21.40;;
57667;SDS011;43499;52.366;12.912;2023-04-08T04:19:42;58.67;;;20.75;;
57667;SDS011;43499;52.366;12.912;2023-04-08T04:20:43;52.05;;;20.13;;
57667;SDS011;43499;52.366;12.912;2023-04-08T04:21:44;53.72;;;22.75;;
57667;SDS011;43499;52.366;12.912;2023-04-08T04:22:45;57.92;;;21.45;;
57667;SDS011;43499;52.366;12.912;2023-04-08T04:23:46;55.17;;;20.75;;
57667;SDS011;43499;52.366;12.912;2023-04-08T04:24:48;50.35;;;20.27;;
57667;SDS011;43499;52.366;12.912;2023-04-08T04:25:49;57.60;;;21.10;;
57667;SDS011;43499;52.366;12.912;2023-04-08T04:26:50;61.03;;;23.00;;
57667;SDS011;43499;52.366;12.912;2023-04-08T04:27:51;57.80;;;21.23;;
57667;SDS011;43499;52.366;12.912;2023-04-08T04:28:52;55.78;;;20.40;;
57667;SDS011;43499;52.366;12.912;2023-04-08T04:29:53;71.63;;;23.27;;
57667;SDS011;43499;52.366;12.912;2023-04-08T04:30:54;59.10;;;22.42;;
57667;SDS011;43499;52.366;12.912;2023-04-08T04:31:55;60.20;;;21.55;;
57667;SDS011;43499;52.366;12.912;2023-04-08T04:32:56;57.15;;;21.27;;
57667;SDS011;43499;52.366;12.912;2023-04-08T04:33:57;60.38;;;20.85;;
57667;SDS011;43499;52.366;12.912;2023-04-08T04:34:58;59.60;;;22.80;;
57667;SDS011;43499;52.366;12.912;2023-04-08T04:35:59;58.63;;;24.50;;
57667;SDS011;43499;52.366;12.912;2023-04-08T04:37:01;61.60;;;22.17;;
57667;SDS011;43499;52.366;12.912;2023-04-08T04:38:02;61.05;;;20.10;;
57667;SDS011;43499;52.366;12.912;2023-04-08T04:39:05;54.80;;;20.33;;
57667;SDS011;43499;52.366;12.912;2023-04-08T04:40:06;60.63;;;20.60;;
57667;SDS011;43499;52.366;12.912;2023-04-08T04:41:07;54.30;;;18.70;;
57667;SDS011;43499;52.366;12.912;2023-04-08T04:42:08;50.78;;;21.17;;
57667;SDS011;43499;52.366;12.912;2023-04-08T04:43:11;59.10;;;22.48;;
57667;SDS011;43499;52.366;12.912;2023-04-08T04:44:12;51.90;;;19.92;;
57667;SDS011;43499;52.366;12.912;2023-04-08T04:45:13;61.35;;;21.73;;
57667;SDS011;43499;52.366;12.912;2023-04-08T04:46:14;65.32;;;23.08;;
57667;SDS011;43499;52.366;12.912;2023-04-08T04:47:15;57.47;;;21.50;;
57667;SDS011;43499;52.366;12.912;2023-04-08T04:48:16;57.80;;;20.15;;
57667;SDS011;43499;52.366;12.912;2023-04-08T04:49:17;52.10;;;20.63;;
57667;SDS011;43499;52.366;12.912;2023-04-08T04:50:18;63.47;;;21.13;;
57667;SDS011;43499;52.366;12.912;2023-04-08T04:51:19;70.97;;;21.45;;
57667;SDS011;43499;52.366;12.912;2023-04-08T04:52:20;63.30;;;21.60;;
57667;SDS011;43499;52.366;12.912;2023-04-08T04:53:21;53.42;;;21.20;;
57667;SDS011;43499;52.366;12.912;2023-04-08T04:54:22;53.83;;;20.08;;
57667;SDS011;43499;52.366;12.912;2023-04-08T04:55:23;50.83;;;21.00;;
57667;SDS011;43499;52.366;12.912;2023-04-08T04:56:24;53.25;;;20.42;;
57667;SDS011;43499;52.366;12.912;2023-04-08T04:57:26;52.90;;;19.67;;
57667;SDS011;43499;52.366;12.912;2023-04-08T04:58:28;60.95;;;19.65;;
57667;SDS011;43499;52.366;12.912;2023-04-08T04:59:30;50.17;;;19.23;;
57667;SDS011;43499;52.366;12.912;2023-04-08T05:00:31;51.55;;;20.42;;
57667;SDS011;43499;52.366;12.912;2023-04-08T05:01:32;58.10;;;21.02;;
57667;SDS011;43499;52.366;12.912;2023-04-08T05:02:33;54.13;;;21.02;;
57667;SDS011;43499;52.366;12.912;2023-04-08T05:03:34;60.78;;;20.70;;
57667;SDS011;43499;52.366;12.912;2023-04-08T05:04:35;54.13;;;20.58;;
57667;SDS011;43499;52.366;12.912;2023-04-08T05:05:36;54.53;;;20.65;;
57667;SDS011;43499;52.366;12.912;2023-04-08T05:06:37;49.70;;;18.33;;
57667;SDS011;43499;52.366;12.912;2023-04-08T05:07:38;56.05;;;20.27;;
57667;SDS011;43499;52.366;12.912;2023-04-08T05:08:39;52.72;;;19.25;;
57667;SDS011;43499;52.366;12.912;2023-04-08T05:09:40;52.08;;;19.27;;
57667;SDS011;43499;52.366;12.912;2023-04-08T05:10:41;53.35;;;19.75;;
57667;SDS011;43499;52.366;12.912;2023-04-08T05:11:42;43.88;;;19.58;;
57667;SDS011;43499;52.366;12.912;2023-04-08T05:12:43;55.58;;;20.10;;
57667;SDS011;43499;52.366;12.912;2023-04-08T05:13:45;46.58;;;19.77;;
57667;SDS011;43499;52.366;12.912;2023-04-08T05:14:46;48.03;;;19.63;;
57667;SDS011;43499;52.366;12.912;2023-04-08T05:15:47;53.78;;;21.27;;
57667;SDS011;43499;52.366;12.912;2023-04-08T05:16:48;49.60;;;18.35;;
57667;SDS011;43499;52.366;12.912;2023-04-08T05:17:49;52.45;;;20.63;;
57667;SDS011;43499;52.366;12.912;2023-04-08T05:18:50;62.65;;;20.50;;
57667;SDS011;43499;52.366;12.912;2023-04-08T05:19:51;58.80;;;20.77;;
57667;SDS011;43499;52.366;12.912;2023-04-08T05:20:53;58.25;;;20.65;;
57667;SDS011;43499;52.366;12.912;2023-04-08T05:21:54;56.75;;;20.70;;
57667;SDS011;43499;52.366;12.912;2023-04-08T05:22:55;55.22;;;20.38;;
57667;SDS011;43499;52.366;12.912;2023-04-08T05:23:56;55.28;;;18.77;;
57667;SDS011;43499;52.366;12.912;2023-04-08T05:24:57;54.60;;;20.52;;
57667;SDS011;43499;52.366;12.912;2023-04-08T05:25:58;60.63;;;21.30;;
57667;SDS011;43499;52.366;12.912;2023-04-08T05:26:59;57.63;;;21.17;;
57667;SDS011;43499;52.366;12.912;2023-04-08T05:28:00;53.28;;;20.48;;
57667;SDS011;43499;52.366;12.912;2023-04-08T05:29:02;58.83;;;20.90;;
57667;SDS011;43499;52.366;12.912;2023-04-08T05:30:03;52.85;;;20.50;;
57667;SDS011;43499;52.366;12.912;2023-04-08T05:31:04;57.42;;;20.67;;
57667;SDS011;43499;52.366;12.912;2023-04-08T05:32:05;52.90;;;22.00;;
57667;SDS011;43499;52.366;12.912;2023-04-08T05:33:06;60.78;;;21.02;;
57667;SDS011;43499;52.366;12.912;2023-04-08T05:34:07;60.38;;;21.05;;
57667;SDS011;43499;52.366;12.912;2023-04-08T05:35:08;55.83;;;21.05;;
57667;SDS011;43499;52.366;12.912;2023-04-08T05:36:10;64.93;;;23.13;;
57667;SDS011;43499;52.366;12.912;2023-04-08T05:37:11;60.33;;;22.73;;
57667;SDS011;43499;52.366;12.912;2023-04-08T05:38:12;64.63;;;23.33;;
57667;SDS011;43499;52.366;12.912;2023-04-08T05:39:13;60.55;;;21.42;;
57667;SDS011;43499;52.366;12.912;2023-04-08T05:40:14;60.88;;;22.45;;
57667;SDS011;43499;52.366;12.912;2023-04-08T05:41:15;61.72;;;22.63;;
57667;SDS011;43499;52.366;12.912;2023-04-08T05:42:16;64.03;;;22.48;;
57667;SDS011;43499;52.366;12.912;2023-04-08T05:43:17;63.03;;;23.85;;
57667;SDS011;43499;52.366;12.912;2023-04-08T05:44:18;56.47;;;21.85;;
57667;SDS011;43499;52.366;12.912;2023-04-08T05:45:19;69.57;;;23.00;;
57667;SDS011;43499;52.366;12.912;2023-04-08T05:46:20;62.10;;;22.35;;
57667;SDS011;43499;52.366;12.912;2023-04-08T05:47:21;56.42;;;21.73;;
57667;SDS011;43499;52.366;12.912;2023-04-08T05:48:22;51.45;;;21.58;;
57667;SDS011;43499;52.366;12.912;2023-04-08T05:49:23;56.97;;;22.23;;
57667;SDS011;43499;52.366;12.912;2023-04-08T05:50:24;62.92;;;22.42;;
57667;SDS011;43499;52.366;12.912;2023-04-08T05:51:25;70.22;;;22.27;;
57667;SDS011;43499;52.366;12.912;2023-04-08T05:52:26;65.75;;;22.27;;
57667;SDS011;43499;52.366;12.912;2023-04-08T05:53:28;66.53;;;23.35;;
57667;SDS011;43499;52.366;12.912;2023-04-08T05:54:30;64.38;;;22.17;;
57667;SDS011;43499;52.366;12.912;2023-04-08T05:55:31;64.50;;;22.30;;
57667;SDS011;43499;52.366;12.912;2023-04-08T05:56:32;62.42;;;24.67;;
57667;SDS011;43499;52.366;12.912;2023-04-08T05:57:33;80.82;;;26.08;;
57667;SDS011;43499;52.366;12.912;2023-04-08T05:58:34;65.82;;;22.70;;
57667;SDS011;43499;52.366;12.912;2023-04-08T05:59:35;67.63;;;22.00;;
57667;SDS011;43499;52.366;12.912;2023-04-08T06:00:36;79.38;;;25.23;;
57667;SDS011;43499;52.366;12.912;2023-04-08T06:01:37;68.57;;;24.17;;
57667;SDS011;43499;52.366;12.912;2023-04-08T06:02:38;71.75;;;24.67;;